Time;durP1;ratioP1;P1;durP2;ratioP2;P2;SDS_P1;SDS_P2;PMS_P1;PMS_P2;Temp;Humidity;BMP_temperature;BMP_pressure;BME280_temperature;BME280_humidity;BME280_pressure;Samples;Min_cycle;Max_cycle;Signal;HPM_P1;HPM_P2
2021/07/05 00:02:07;;;;;;;31.13;28.03;;;;;;;;;;5299101;22;20486;-96
2021/07/05 00:04:35;;;;;;;31.58;28.40;;;;;;;;;;5026044;28;20435;-96
2021/07/05 00:07:04;;;;;;;32.47;29.27;;;;;;;;;;5023753;28;20570;-96
2021/07/05 00:09:32;;;;;;;31.03;28.07;;;;;;;;;;5022140;28;20446;-96
2021/07/05 00:12:00;;;;;;;31.33;28.17;;;;;;;;;;5017830;28;20419;-95
2021/07/05 00:14:29;;;;;;;30.98;27.90;;;;;;;;;;5018712;28;20417;-96
2021/07/05 00:16:57;;;;;;;31.50;28.40;;;;;;;;;;5026070;28;20484;-96
2021/07/05 00:19:24;;;;;;;31.10;28.00;;;;;;;;;;5023086;28;20426;-95
2021/07/05 00:21:52;;;;;;;31.65;28.45;;;;;;;;;;5025237;28;20437;-96
2021/07/05 00:24:21;;;;;;;32.20;28.80;;;;;;;;;;5024246;28;21022;-93
2021/07/05 00:26:48;;;;;;;32.28;28.88;;;;;;;;;;5019559;28;20405;-95
2021/07/05 00:29:15;;;;;;;31.25;28.23;;;;;;;;;;5022797;28;20425;-96
2021/07/05 00:31:44;;;;;;;30.73;27.63;;;;;;;;;;5021481;28;20401;-96
2021/07/05 00:34:11;;;;;;;31.67;28.45;;;;;;;;;;5019671;28;20407;-96
2021/07/05 00:36:38;;;;;;;30.92;27.83;;;;;;;;;;5019950;28;20411;-96
2021/07/05 00:39:05;;;;;;;31.08;27.88;;;;;;;;;;5022358;28;20425;-96
2021/07/05 00:41:32;;;;;;;31.90;28.60;;;;;;;;;;5022035;28;20428;-96
2021/07/05 00:44:00;;;;;;;33.35;30.02;;;;;;;;;;5024383;28;20411;-96
2021/07/05 00:46:27;;;;;;;34.25;30.75;;;;;;;;;;5024194;28;20433;-95
2021/07/05 00:48:56;;;;;;;34.05;30.58;;;;;;;;;;5025966;28;20420;-95
2021/07/05 00:51:23;;;;;;;34.30;30.77;;;;;;;;;;5028841;28;20417;-96
2021/07/05 00:53:51;;;;;;;34.58;31.08;;;;;;;;;;5025749;28;20413;-96
2021/07/05 00:56:19;;;;;;;34.78;31.27;;;;;;;;;;5025430;28;20442;-96
2021/07/05 00:58:46;;;;;;;35.63;31.98;;;;;;;;;;5022671;28;20432;-96
2021/07/05 01:01:13;;;;;;;38.25;34.13;;;;;;;;;;5024965;28;20425;-96
2021/07/05 01:03:41;;;;;;;37.25;33.42;;;;;;;;;;5024161;28;20416;-96
2021/07/05 01:06:09;;;;;;;36.08;32.33;;;;;;;;;;5025088;28;20417;-96
2021/07/05 01:08:36;;;;;;;35.53;31.88;;;;;;;;;;5024440;28;20417;-96
2021/07/05 01:11:03;;;;;;;35.03;31.53;;;;;;;;;;5024015;28;20413;-95
2021/07/05 01:13:30;;;;;;;35.40;31.70;;;;;;;;;;5025687;28;20426;-96
2021/07/05 01:15:57;;;;;;;36.55;32.65;;;;;;;;;;5038128;28;20586;-96
2021/07/05 01:18:25;;;;;;;35.15;31.63;;;;;;;;;;5036063;28;20423;-95
2021/07/05 01:20:52;;;;;;;36.33;32.45;;;;;;;;;;5030384;28;20862;-96
2021/07/05 01:23:21;;;;;;;35.58;31.88;;;;;;;;;;5025029;28;20407;-95
2021/07/05 01:25:48;;;;;;;34.58;31.08;;;;;;;;;;5027089;28;20921;-96
2021/07/05 01:28:15;;;;;;;34.58;30.98;;;;;;;;;;5026866;28;20420;-95
2021/07/05 01:30:42;;;;;;;35.38;31.77;;;;;;;;;;5021318;28;20409;-96
2021/07/05 01:33:11;;;;;;;35.70;32.10;;;;;;;;;;5022004;28;20411;-95
2021/07/05 01:35:38;;;;;;;36.28;32.47;;;;;;;;;;5025737;28;20947;-95
2021/07/05 01:38:11;;;;;;;37.15;33.25;;;;;;;;;;5022965;28;20452;-96
2021/07/05 01:40:41;;;;;;;35.37;31.63;;;;;;;;;;5024139;28;20429;-95
2021/07/05 01:43:08;;;;;;;36.55;32.65;;;;;;;;;;5022508;28;20417;-96
2021/07/05 01:45:36;;;;;;;36.88;33.03;;;;;;;;;;5022130;28;20417;-96
2021/07/05 01:48:03;;;;;;;37.83;33.72;;;;;;;;;;5022449;28;20417;-96
2021/07/05 01:50:31;;;;;;;36.95;33.17;;;;;;;;;;5024571;28;20413;-95
2021/07/05 01:53:00;;;;;;;37.17;33.27;;;;;;;;;;5022981;28;20777;-95
2021/07/05 01:55:30;;;;;;;36.63;32.80;;;;;;;;;;5022418;28;20411;-96
2021/07/05 01:58:00;;;;;;;37.20;33.30;;;;;;;;;;5024356;28;20600;-96
2021/07/05 02:00:28;;;;;;;38.57;34.53;;;;;;;;;;5023571;28;20426;-94
2021/07/05 02:02:56;;;;;;;37.00;33.20;;;;;;;;;;5032545;28;20927;-95
2021/07/05 02:05:23;;;;;;;37.15;33.15;;;;;;;;;;5026975;28;20420;-96
2021/07/05 02:07:51;;;;;;;35.95;32.15;;;;;;;;;;5029714;28;20415;-96
2021/07/05 02:10:22;;;;;;;35.47;31.88;;;;;;;;;;5030406;28;20424;-96
2021/07/05 02:12:49;;;;;;;34.28;30.67;;;;;;;;;;5030002;28;20420;-96
2021/07/05 02:15:18;;;;;;;33.17;29.88;;;;;;;;;;5029857;28;20420;-96
2021/07/05 02:17:45;;;;;;;32.15;28.88;;;;;;;;;;5029719;28;20430;-96
2021/07/05 02:20:15;;;;;;;31.30;28.20;;;;;;;;;;5030145;28;20410;-96
2021/07/05 02:22:42;;;;;;;30.48;27.27;;;;;;;;;;5029686;28;20775;-96
2021/07/05 02:25:12;;;;;;;26.15;23.50;;;;;;;;;;5029996;28;20416;-96
2021/07/05 02:27:40;;;;;;;26.05;23.48;;;;;;;;;;5029163;28;20875;-94
2021/07/05 02:30:10;;;;;;;24.83;22.33;;;;;;;;;;5029404;28;20417;-94
2021/07/05 02:32:41;;;;;;;24.63;22.23;;;;;;;;;;5029135;28;20499;-95
2021/07/05 02:35:11;;;;;;;24.77;22.38;;;;;;;;;;5029315;28;20775;-95
2021/07/05 02:37:38;;;;;;;24.30;21.92;;;;;;;;;;5029429;28;20425;-95
2021/07/05 02:40:08;;;;;;;23.55;21.25;;;;;;;;;;5028865;28;20416;-95
2021/07/05 02:42:36;;;;;;;22.40;20.10;;;;;;;;;;5028755;28;20897;-95
2021/07/05 02:45:04;;;;;;;21.30;19.20;;;;;;;;;;5028744;28;20417;-94
2021/07/05 02:47:31;;;;;;;21.03;18.83;;;;;;;;;;5016761;28;20423;-95
2021/07/05 02:50:00;;;;;;;21.17;18.88;;;;;;;;;;5021719;28;20413;-95
2021/07/05 02:52:27;;;;;;;21.20;19.10;;;;;;;;;;5024974;28;20405;-95
2021/07/05 02:54:54;;;;;;;21.38;19.08;;;;;;;;;;5028659;28;20413;-95
2021/07/05 02:57:30;;;;;;;21.02;18.92;;;;;;;;;;5029521;28;20414;-93
2021/07/05 03:00:01;;;;;;;21.20;19.00;;;;;;;;;;5025713;28;20467;-95
2021/07/05 03:02:30;;;;;;;21.15;19.13;;;;;;;;;;5030377;28;20417;-96
2021/07/05 03:05:00;;;;;;;20.90;18.80;;;;;;;;;;5029387;28;20488;-96
2021/07/05 03:07:27;;;;;;;21.35;19.23;;;;;;;;;;5052745;28;20477;-96
2021/07/05 03:09:57;;;;;;;21.60;19.33;;;;;;;;;;5037149;28;20401;-95
2021/07/05 03:12:25;;;;;;;22.35;20.17;;;;;;;;;;5050069;28;20432;-95
2021/07/05 03:14:54;;;;;;;22.88;19.92;;;;;;;;;;5047824;28;20449;-95
2021/07/05 03:17:21;;;;;;;22.67;20.45;;;;;;;;;;5024787;28;20409;-96
2021/07/05 03:19:48;;;;;;;22.88;20.48;;;;;;;;;;5030869;28;20773;-95
2021/07/05 03:22:18;;;;;;;22.27;20.00;;;;;;;;;;5030174;28;20900;-95
2021/07/05 03:24:45;;;;;;;22.20;20.00;;;;;;;;;;5029978;28;20418;-95
2021/07/05 03:27:13;;;;;;;22.60;20.20;;;;;;;;;;5030129;28;20412;-96
2021/07/05 03:29:40;;;;;;;22.45;20.08;;;;;;;;;;5029697;28;20406;-96
2021/07/05 03:32:09;;;;;;;21.85;19.73;;;;;;;;;;5030725;28;20889;-94
2021/07/05 03:34:36;;;;;;;21.63;19.52;;;;;;;;;;5029820;28;20421;-96
2021/07/05 03:37:04;;;;;;;21.40;19.35;;;;;;;;;;5029561;28;20424;-96
2021/07/05 03:39:33;;;;;;;21.60;19.42;;;;;;;;;;5029790;28;20413;-96
2021/07/05 03:42:00;;;;;;;20.88;18.77;;;;;;;;;;5029030;28;20741;-95
2021/07/05 03:44:27;;;;;;;21.17;19.15;;;;;;;;;;5029521;28;20413;-95
2021/07/05 03:46:54;;;;;;;17.90;16.25;;;;;;;;;;5029398;28;20420;-95
2021/07/05 03:49:22;;;;;;;18.08;16.38;;;;;;;;;;5025911;28;20409;-95
2021/07/05 03:51:49;;;;;;;18.38;16.48;;;;;;;;;;5031051;28;20413;-96
2021/07/05 03:54:17;;;;;;;17.58;15.77;;;;;;;;;;5029057;28;20413;-95
2021/07/05 03:56:46;;;;;;;18.02;16.25;;;;;;;;;;5025146;28;20416;-95
2021/07/05 03:59:13;;;;;;;18.05;16.35;;;;;;;;;;5028129;28;20579;-95
2021/07/05 04:01:40;;;;;;;17.88;16.08;;;;;;;;;;5028060;28;20428;-96
2021/07/05 04:04:08;;;;;;;18.33;16.23;;;;;;;;;;5028604;28;20432;-95
2021/07/05 04:06:35;;;;;;;16.08;14.48;;;;;;;;;;5018880;28;20405;-95
2021/07/05 04:09:04;;;;;;;15.80;14.25;;;;;;;;;;5028146;28;20860;-96
2021/07/05 04:11:31;;;;;;;16.30;14.40;;;;;;;;;;5027043;28;20437;-94
2021/07/05 04:14:00;;;;;;;14.85;13.43;;;;;;;;;;5024778;28;20504;-95
2021/07/05 04:16:28;;;;;;;14.15;12.65;;;;;;;;;;5021742;28;20411;-95
2021/07/05 04:18:55;;;;;;;13.18;11.88;;;;;;;;;;5024619;28;20418;-96
2021/07/05 04:21:25;;;;;;;13.20;12.00;;;;;;;;;;5035217;28;20418;-94
2021/07/05 04:23:53;;;;;;;12.52;11.27;;;;;;;;;;5031388;28;20415;-96
2021/07/05 04:26:21;;;;;;;12.73;11.50;;;;;;;;;;5028283;28;20413;-95
2021/07/05 04:28:49;;;;;;;11.60;10.48;;;;;;;;;;5031050;28;20419;-94
2021/07/05 04:31:18;;;;;;;11.75;10.55;;;;;;;;;;5028565;28;20698;-95
2021/07/05 04:33:45;;;;;;;12.50;11.40;;;;;;;;;;5029876;28;20424;-95
2021/07/05 04:36:12;;;;;;;12.73;11.57;;;;;;;;;;5030390;28;21017;-96
2021/07/05 04:38:39;;;;;;;12.65;11.45;;;;;;;;;;5030159;28;20417;-95
2021/07/05 04:41:06;;;;;;;12.90;11.70;;;;;;;;;;5036522;28;20409;-94
2021/07/05 04:43:33;;;;;;;12.20;11.10;;;;;;;;;;5031416;28;20413;-95
2021/07/05 04:46:05;;;;;;;12.65;11.45;;;;;;;;;;5036537;28;20590;-95
2021/07/05 04:48:34;;;;;;;13.23;11.93;;;;;;;;;;5033705;28;20417;-95
2021/07/05 04:51:03;;;;;;;13.45;12.25;;;;;;;;;;5026210;28;20412;-94
2021/07/05 04:53:32;;;;;;;15.18;13.68;;;;;;;;;;5032965;28;20420;-95
2021/07/05 04:55:59;;;;;;;15.07;13.65;;;;;;;;;;5022976;28;20929;-94
2021/07/05 04:58:28;;;;;;;15.55;14.02;;;;;;;;;;5029385;28;20411;-96
2021/07/05 05:00:56;;;;;;;14.43;13.02;;;;;;;;;;5034463;28;20409;-96
2021/07/05 05:03:23;;;;;;;14.90;13.48;;;;;;;;;;5029398;28;20424;-96
2021/07/05 05:05:52;;;;;;;14.35;13.05;;;;;;;;;;5030066;28;20424;-96
2021/07/05 05:08:37;;;;;;;14.82;13.43;;;;;;;;;;5028101;28;20427;-95
2021/07/05 05:11:05;;;;;;;14.05;12.75;;;;;;;;;;5031436;28;20508;-96
2021/07/05 05:13:32;;;;;;;15.07;13.50;;;;;;;;;;5025916;28;20420;-96
2021/07/05 05:15:59;;;;;;;14.48;12.98;;;;;;;;;;5031233;28;20417;-96
2021/07/05 05:18:26;;;;;;;14.85;13.30;;;;;;;;;;5029810;28;20410;-94
2021/07/05 05:20:57;;;;;;;15.05;13.60;;;;;;;;;;5029666;28;20516;-95
2021/07/05 05:23:25;;;;;;;14.52;13.02;;;;;;;;;;5030461;28;20429;-96
2021/07/05 05:25:55;;;;;;;13.40;12.20;;;;;;;;;;5031660;28;20418;-96
2021/07/05 05:28:31;;;;;;;13.65;12.40;;;;;;;;;;5030848;28;20409;-96
2021/07/05 05:30:59;;;;;;;14.43;13.13;;;;;;;;;;5032354;28;20471;-95
2021/07/05 05:33:28;;;;;;;13.82;12.43;;;;;;;;;;5035435;28;20401;-96
2021/07/05 05:36:01;;;;;;;13.50;12.10;;;;;;;;;;5040397;28;20428;-96
2021/07/05 05:38:36;;;;;;;13.88;12.65;;;;;;;;;;5042730;28;20411;-96
2021/07/05 05:49:50;;;;;;;12.27;11.18;;;;;;;;;;5040015;28;20401;-96
2021/07/05 05:52:30;;;;;;;11.70;10.70;;;;;;;;;;5037831;28;20551;-96
2021/07/05 05:55:46;;;;;;;13.70;12.50;;;;;;;;;;5039128;28;20446;-95
2021/07/05 06:08:18;;;;;;;15.65;14.05;;;;;;;;;;5033834;28;20403;-95
2021/07/05 06:14:02;;;;;;;14.03;12.57;;;;;;;;;;5031129;28;20441;-96
2021/07/05 06:20:13;;;;;;;11.65;10.57;;;;;;;;;;5040924;28;20418;-96
2021/07/05 06:36:01;;;;;;;9.15;8.25;;;;;;;;;;5058918;22;20435;-93
2021/07/05 06:38:32;;;;;;;9.30;7.68;;;;;;;;;;5012153;28;20415;-96
2021/07/05 06:41:03;;;;;;;8.60;7.68;;;;;;;;;;5010363;28;20438;-95
2021/07/05 06:43:34;;;;;;;7.63;6.82;;;;;;;;;;5005686;28;20428;-96
2021/07/05 06:46:06;;;;;;;7.47;6.30;;;;;;;;;;5007564;28;20415;-95
2021/07/05 06:48:34;;;;;;;8.80;7.90;;;;;;;;;;5009163;28;20779;-95
2021/07/05 06:51:03;;;;;;;8.98;7.75;;;;;;;;;;5011344;28;20426;-95
2021/07/05 06:53:33;;;;;;;8.67;6.87;;;;;;;;;;5010387;28;20415;-96
2021/07/05 06:56:02;;;;;;;7.70;6.45;;;;;;;;;;5002473;28;20994;-95
2021/07/05 06:58:36;;;;;;;8.60;7.15;;;;;;;;;;4998973;28;20444;-95
2021/07/05 07:37:46;;;;;;;6.80;6.18;;;;;;;;;;4994857;28;20907;-95
2021/07/05 07:40:32;;;;;;;5.47;5.00;;;;;;;;;;4995854;28;20424;-96
2021/07/05 07:43:01;;;;;;;6.00;5.50;;;;;;;;;;4992411;28;20533;-94
2021/07/05 07:45:35;;;;;;;5.05;4.50;;;;;;;;;;4990090;28;20471;-96
2021/07/05 07:48:05;;;;;;;4.63;4.22;;;;;;;;;;4986576;28;20419;-94
